METAR Data

Data at: 1012 UTC 21 Apr 2021

METAR for:KIWI (Wiscasset Arpt, ME, US)
Text:KIWI 211003Z AUTO 00000KT 9SM CLR 04/03 A2987 RMK AO2 T00390033
Temperature: 3.9°C ( 39°F)
Dewpoint: 3.3°C ( 38°F) [RH = 96%]
Pressure (altimeter):29.87 inches Hg (1011.6 mb)
Winds:calm
Visibility: 9 sm ( 14 km)
Ceiling:at least 12,000 feet AGL
Clouds:sky clear below 12,000 feet AGL
QC Flag:automated observation with no human augmentation